createdAt,value
2018-07-12T00:01:06.554Z,99.9
2018-07-12T00:03:59.869Z,99.9
2018-07-12T00:09:52.691Z,99.9
2018-07-12T00:12:46.019Z,99.9
2018-07-12T00:15:41.340Z,99.9
2018-07-12T00:18:36.699Z,99.9
2018-07-12T00:21:32.038Z,99.9
2018-07-12T00:24:27.620Z,99.9
2018-07-12T00:27:34.933Z,99.9
2018-07-12T00:30:21.126Z,99.9
2018-07-12T00:33:14.420Z,99.9
2018-07-12T00:41:59.484Z,99.9
2018-07-12T00:50:45.490Z,99.9
2018-07-12T00:53:41.030Z,99.9
2018-07-12T00:56:36.159Z,99.9
2018-07-12T00:59:32.538Z,99.9
2018-07-12T01:02:30.278Z,99.9
2018-07-12T01:05:23.207Z,99.9
2018-07-12T01:08:17.558Z,99.9
2018-07-12T01:11:12.843Z,99.9
2018-07-12T01:14:08.164Z,99.9
2018-07-12T01:17:03.510Z,99.9
2018-07-12T01:19:58.820Z,99.9
2018-07-12T01:22:54.088Z,99.9
2018-07-12T01:25:53.390Z,99.9
2018-07-12T01:28:48.527Z,99.9
2018-07-12T01:31:43.749Z,99.9
2018-07-12T01:34:38.290Z,99.9
2018-07-12T01:37:31.686Z,99.9
2018-07-12T01:40:26.473Z,99.9
2018-07-12T01:43:21.329Z,99.9
2018-07-12T01:46:23.237Z,99.9
2018-07-12T01:49:12.136Z,99.9
2018-07-12T01:52:11.253Z,99.9
2018-07-12T01:55:02.545Z,99.9
2018-07-12T01:57:58.057Z,99.9
2018-07-12T02:00:57.082Z,99.9
2018-07-12T02:04:01.109Z,99.9
2018-07-12T02:06:44.484Z,99.9
2018-07-12T02:09:39.052Z,99.9
2018-07-12T02:12:34.329Z,99.9
2018-07-12T02:15:29.602Z,99.9
2018-07-12T02:18:25.101Z,99.9
2018-07-12T02:21:20.193Z,99.9
2018-07-12T02:24:16.491Z,99.9
2018-07-12T02:27:13.655Z,99.9
2018-07-12T02:30:06.074Z,99.9
2018-07-12T02:35:56.704Z,99.9
2018-07-12T02:38:57.391Z,99.9
2018-07-12T02:41:48.212Z,99.9
2018-07-12T02:47:37.779Z,99.9
2018-07-12T02:50:36.135Z,99.9
2018-07-12T02:53:28.417Z,99.9
2018-07-12T02:56:23.689Z,99.9
2018-07-12T02:59:18.988Z,99.9
2018-07-12T03:02:14.255Z,99.9
2018-07-12T03:08:05.787Z,99.9
2018-07-12T03:11:00.084Z,99.9
2018-07-12T03:13:55.351Z,99.9
2018-07-12T03:16:53.511Z,99.9
2018-07-12T03:19:45.837Z,99.9
2018-07-12T03:25:36.329Z,99.9
2018-07-12T03:28:31.489Z,99.9
2018-07-12T03:31:26.823Z,99.9
2018-07-12T03:34:22.270Z,99.9
2018-07-12T03:37:17.305Z,99.9
2018-07-12T03:40:13.207Z,99.9
2018-07-12T03:43:11.763Z,99.9
2018-07-12T03:46:03.120Z,99.9
2018-07-12T03:49:04.973Z,99.9
2018-07-12T03:51:53.508Z,99.9
2018-07-12T03:54:49.844Z,99.9
2018-07-12T03:57:44.101Z,99.9
2018-07-12T04:00:40.360Z,99.9
2018-07-12T04:03:34.736Z,99.9
2018-07-12T04:12:20.332Z,99.9
2018-07-12T04:15:18.555Z,99.9
2018-07-12T04:18:10.892Z,99.9
2018-07-12T04:21:14.879Z,99.9
2018-07-12T04:24:01.428Z,99.9
2018-07-12T04:27:00.584Z,99.9
2018-07-12T04:29:51.893Z,99.9
2018-07-12T04:32:47.358Z,99.9
2018-07-12T04:35:42.878Z,99.9
2018-07-12T04:38:37.670Z,99.9
2018-07-12T04:41:35.684Z,99.9
2018-07-12T04:47:26.299Z,99.9
2018-07-12T04:50:19.626Z,99.9
2018-07-12T04:56:09.197Z,99.9
2018-07-12T04:59:04.494Z,99.9
2018-07-12T05:01:59.785Z,99.9
2018-07-12T05:04:55.127Z,99.9
2018-07-12T05:07:50.421Z,99.9
2018-07-12T05:10:48.608Z,99.9
2018-07-12T05:16:39.331Z,99.9
2018-07-12T05:19:32.080Z,99.9
2018-07-12T05:22:27.164Z,99.9
2018-07-12T05:25:22.684Z,99.9
2018-07-12T05:28:18.123Z,99.9
2018-07-12T05:31:13.655Z,99.9
2018-07-12T05:34:10.199Z,99.9
2018-07-12T05:37:05.054Z,99.9
2018-07-12T05:54:39.680Z,97.1
2018-07-12T05:57:36.203Z,95.9
2018-07-12T06:06:23.987Z,94.9
2018-07-12T06:21:08.376Z,91.4
2018-07-12T06:26:57.464Z,91.1
2018-07-12T06:32:50.187Z,90.2
2018-07-12T06:38:42.926Z,89.2
2018-07-12T06:41:39.341Z,87.4
2018-07-12T06:47:32.174Z,87
2018-07-12T06:53:25.028Z,84.7
2018-07-12T06:56:24.439Z,83.2
2018-07-12T07:02:14.368Z,83.5
2018-07-12T07:11:03.861Z,81.1
2018-07-12T07:14:00.397Z,82.1
2018-07-12T07:16:56.906Z,80.9
2018-07-12T07:19:53.432Z,78.2
2018-07-12T07:22:50.009Z,77.6
2018-07-12T07:25:46.568Z,77.9
2018-07-12T07:28:43.153Z,76.5
2018-07-12T07:31:39.769Z,73.1
2018-07-12T07:34:36.386Z,73.4
2018-07-12T07:37:33.028Z,75.2
2018-07-12T07:40:29.693Z,74.2
2018-07-12T07:43:26.383Z,71.5
2018-07-12T07:46:23.053Z,72.1
2018-07-12T07:49:22.796Z,69.3
2018-07-12T07:52:16.405Z,68.9
2018-07-12T07:55:13.095Z,69.5
2018-07-12T07:58:09.749Z,72.9
2018-07-12T08:01:06.370Z,70.7
2018-07-12T08:04:02.940Z,72
2018-07-12T08:06:59.502Z,72.8
2018-07-12T08:09:56.063Z,75.6
2018-07-12T08:12:52.587Z,72.2
2018-07-12T08:15:49.120Z,70.2
2018-07-12T08:18:45.632Z,68.5
2018-07-12T08:21:42.117Z,69.7
2018-07-12T08:24:38.607Z,70.3
2018-07-12T08:27:35.067Z,69.8
2018-07-12T08:30:31.469Z,72.2
2018-07-12T08:33:28.269Z,77.4
2018-07-12T08:36:24.191Z,75
2018-07-12T08:39:20.542Z,69.5
2018-07-12T08:42:16.940Z,75.8
2018-07-12T08:45:13.210Z,70.8
2018-07-12T08:48:09.505Z,70.8
2018-07-12T08:51:05.758Z,71.4
2018-07-12T08:54:02.040Z,70.6
2018-07-12T08:56:58.228Z,72.2
2018-07-12T08:59:54.404Z,69.2
2018-07-12T09:02:50.993Z,69.4
2018-07-12T09:05:46.676Z,70.4
2018-07-12T09:08:42.809Z,68.4
2018-07-12T09:11:38.891Z,69.5
2018-07-12T09:14:34.935Z,73.2
2018-07-12T09:17:30.955Z,72.5
2018-07-12T09:20:26.963Z,71.3
2018-07-12T09:23:22.945Z,71.4
2018-07-12T09:26:18.943Z,71.6
2018-07-12T09:29:15.129Z,72.5
2018-07-12T09:32:10.945Z,71
2018-07-12T09:35:06.900Z,71.7
2018-07-12T09:38:02.858Z,70.9
2018-07-12T09:40:58.783Z,71.5
2018-07-12T09:43:54.694Z,71.3
2018-07-12T09:46:50.598Z,74.6
2018-07-12T09:49:46.544Z,70.3
2018-07-12T09:52:42.457Z,72.2
2018-07-12T09:55:38.640Z,71.2
2018-07-12T09:58:34.280Z,70.8
2018-07-12T10:01:30.193Z,70.4
2018-07-12T10:04:26.109Z,72.1
2018-07-12T10:07:22.012Z,70.3
2018-07-12T10:10:17.948Z,71.5
2018-07-12T10:13:13.863Z,69.8
2018-07-12T10:16:09.830Z,77
2018-07-12T10:19:05.822Z,73.8
2018-07-12T10:22:01.860Z,73.1
2018-07-12T10:24:57.856Z,72
2018-07-12T10:27:53.895Z,71.1
2018-07-12T10:30:49.942Z,70.4
2018-07-12T10:33:46.012Z,70.2
2018-07-12T10:36:42.093Z,68.1
2018-07-12T10:39:38.170Z,69.5
2018-07-12T10:42:34.254Z,66.3
2018-07-12T10:45:31.281Z,68.1
2018-07-12T10:48:26.336Z,68.4
2018-07-12T10:51:22.404Z,69.6
2018-07-12T10:54:18.413Z,66.6
2018-07-12T10:57:14.424Z,69.5
2018-07-12T11:00:10.431Z,67.8
2018-07-12T11:03:06.446Z,69.8
2018-07-12T11:06:02.448Z,69.6
2018-07-12T11:08:58.458Z,70.2
2018-07-12T11:11:54.511Z,69.1
2018-07-12T11:14:50.546Z,65.5
2018-07-12T11:17:46.609Z,68.4
2018-07-12T11:20:42.628Z,67.4
2018-07-12T11:23:41.640Z,70.1
2018-07-12T11:26:34.614Z,68.6
2018-07-12T11:29:33.338Z,69
2018-07-12T11:32:26.586Z,68.9
2018-07-12T11:35:22.554Z,69.5
2018-07-12T11:38:18.511Z,71.4
2018-07-12T11:41:14.500Z,67.9
2018-07-12T11:44:10.584Z,68.3
2018-07-12T11:47:06.421Z,70
2018-07-12T11:50:09.381Z,68.4
2018-07-12T11:53:01.411Z,69.3
2018-07-12T11:55:54.396Z,70.5
2018-07-12T11:58:55.865Z,71.8
2018-07-12T12:01:46.740Z,68.7
2018-07-12T12:04:42.335Z,70.7
2018-07-12T12:07:38.321Z,70.2
2018-07-12T12:10:34.451Z,69.4
2018-07-12T12:13:30.303Z,70.4
2018-07-12T12:16:26.334Z,70.1
2018-07-12T12:19:22.523Z,70.2
2018-07-12T12:22:18.372Z,71.5
2018-07-12T12:25:14.388Z,72.6
2018-07-12T12:28:10.383Z,70.6
2018-07-12T12:31:06.379Z,71.2
2018-07-12T12:34:02.355Z,69.4
2018-07-12T12:36:58.331Z,70.6
2018-07-12T12:39:54.319Z,69.8
2018-07-12T12:45:46.342Z,70.3
2018-07-12T12:48:42.313Z,70.8
2018-07-12T12:51:38.563Z,71.5
2018-07-12T12:54:34.374Z,71.9
2018-07-12T12:57:30.350Z,72.3
2018-07-12T13:00:26.375Z,71.9
2018-07-12T13:03:22.347Z,72.4
2018-07-12T13:06:18.374Z,72.2
2018-07-12T13:09:14.382Z,71.2
2018-07-12T13:12:10.665Z,68.4
2018-07-12T13:15:06.471Z,68.9
2018-07-12T13:18:02.512Z,69.6
2018-07-12T13:20:58.557Z,71.1
2018-07-12T13:23:54.596Z,71.2
2018-07-12T13:26:53.357Z,71.6
2018-07-12T13:29:46.844Z,69.8
2018-07-12T13:32:42.696Z,72.2
2018-07-12T13:35:38.796Z,71.9
2018-07-12T13:38:35.872Z,71.2
2018-07-12T13:44:30.604Z,70.9
2018-07-12T13:47:22.904Z,72.8
2018-07-12T13:50:21.857Z,72.5
2018-07-12T13:53:15.821Z,71.8
2018-07-12T13:56:17.768Z,72.6
2018-07-12T13:59:06.749Z,72.4
2018-07-12T14:02:02.713Z,70.9
2018-07-12T14:04:58.772Z,70.8
2018-07-12T14:07:54.705Z,71.4
2018-07-12T14:10:51.648Z,72.5
2018-07-12T14:13:46.633Z,72.8
2018-07-12T14:16:46.659Z,73
2018-07-12T14:19:38.596Z,73.5
2018-07-12T14:25:32.541Z,74.2
2018-07-12T14:31:26.518Z,75.2
2018-07-12T14:34:21.503Z,74.8
2018-07-12T14:37:14.467Z,73.6
2018-07-12T14:40:12.021Z,75
2018-07-12T14:43:06.436Z,74.9
2018-07-12T14:49:01.822Z,75.3
2018-07-12T14:52:00.782Z,74.6
2018-07-12T14:54:55.883Z,75.1
2018-07-12T14:57:46.345Z,76.2
2018-07-12T15:00:42.536Z,75.2
2018-07-12T15:03:41.386Z,76.2
2018-07-12T15:06:35.270Z,76.8
2018-07-12T15:09:33.267Z,77.7
2018-07-12T15:12:29.016Z,75.4
2018-07-12T15:15:22.222Z,76
2018-07-12T15:18:19.169Z,76.2
2018-07-12T15:21:14.138Z,75.6
2018-07-12T15:24:17.005Z,76.8
2018-07-12T15:27:06.095Z,75.7
2018-07-12T15:32:58.065Z,76.5
2018-07-12T15:35:54.239Z,77.2
2018-07-12T15:38:53.929Z,77.3
2018-07-12T15:41:45.947Z,77.1
2018-07-12T15:44:41.914Z,77.3
2018-07-12T15:47:37.887Z,77.1
2018-07-12T15:50:36.623Z,76.8
2018-07-12T15:56:26.383Z,75.6
2018-07-12T15:59:21.948Z,75.4
2018-07-12T16:02:20.854Z,76.2
2018-07-12T16:05:16.896Z,77.7
2018-07-12T16:08:09.980Z,76.1
2018-07-12T16:11:06.005Z,76.9
2018-07-12T16:14:04.760Z,75.1
2018-07-12T16:19:54.084Z,77
2018-07-12T16:22:50.155Z,76.2
2018-07-12T16:25:50.520Z,78
2018-07-12T16:28:47.596Z,77.4
2018-07-12T16:31:40.984Z,77.3
2018-07-12T16:34:34.425Z,76.8
2018-07-12T16:37:31.202Z,76.8
2018-07-12T16:40:26.198Z,76.7
2018-07-12T16:43:22.236Z,76.4
2018-07-12T16:46:18.505Z,76.8
2018-07-12T16:49:17.203Z,76
2018-07-12T16:52:10.282Z,75.6
2018-07-12T16:55:06.336Z,75.8
2018-07-12T16:58:02.310Z,76.1
2018-07-12T17:00:58.310Z,76.3
2018-07-12T17:03:54.301Z,75.5
2018-07-12T17:06:50.395Z,76.1
2018-07-12T17:09:46.539Z,76.6
2018-07-12T17:15:39.340Z,77.8
2018-07-12T17:18:35.237Z,77.3
2018-07-12T17:24:35.926Z,77.1
2018-07-12T17:30:19.355Z,76.6
2018-07-12T17:33:14.652Z,77.2
2018-07-12T17:36:11.383Z,77.6
2018-07-12T17:39:06.376Z,76.9
2018-07-12T17:42:02.604Z,77.1
2018-07-12T17:53:50.188Z,77.1
2018-07-12T17:56:42.474Z,78
2018-07-12T17:59:41.138Z,77.9
2018-07-12T18:02:34.160Z,78.2
2018-07-12T18:11:21.954Z,78.3
2018-07-12T18:17:13.711Z,79.3
2018-07-12T18:23:06.229Z,80.3
2018-07-12T18:28:57.325Z,82.8
2018-07-12T18:31:53.213Z,81.3
2018-07-12T18:35:13.738Z,81.2
2018-07-12T18:37:45.003Z,80.6
2018-07-12T18:40:41.094Z,80.5
2018-07-12T18:43:49.353Z,81.8
2018-07-12T18:49:35.325Z,82.8
2018-07-12T18:52:24.372Z,83.5
2018-07-12T18:55:20.539Z,84.7
2018-07-12T18:58:16.177Z,86.3
2018-07-12T19:01:24.917Z,86
2018-07-12T19:04:07.916Z,86.9
2018-07-12T19:07:03.799Z,88
2018-07-12T19:10:00.557Z,88.5
2018-07-12T19:12:56.345Z,87.9
2018-07-12T19:15:51.154Z,89.2
2018-07-12T19:18:46.992Z,89.6
2018-07-12T19:21:46.342Z,90
2018-07-12T19:24:38.615Z,90
2018-07-12T19:27:34.945Z,90.5
2018-07-12T19:30:31.059Z,90.6
2018-07-12T19:33:26.069Z,90.8
2018-07-12T19:36:21.774Z,91.1
2018-07-12T19:39:17.569Z,91.2
2018-07-12T19:42:14.615Z,91.3
2018-07-12T19:45:10.385Z,91.9
2018-07-12T19:48:09.052Z,92
2018-07-12T19:51:00.738Z,92.4
2018-07-12T19:53:56.752Z,92.3
2018-07-12T19:56:52.301Z,92.8
2018-07-12T19:59:48.080Z,92.9
2018-07-12T20:02:43.853Z,92.8
2018-07-12T20:05:39.629Z,92.8
2018-07-12T20:08:35.377Z,93.4
2018-07-12T20:11:31.116Z,93.4
2018-07-12T20:14:26.862Z,93.6
2018-07-12T20:17:22.587Z,93.7
2018-07-12T20:20:18.298Z,93.9
2018-07-12T20:23:14.032Z,94.2
2018-07-12T20:26:09.917Z,94.7
2018-07-12T20:29:05.488Z,94.8
2018-07-12T20:32:01.188Z,94.7
2018-07-12T20:34:56.881Z,95.3
2018-07-12T20:37:52.630Z,95.4
2018-07-12T20:40:48.495Z,95.8
2018-07-12T20:43:44.039Z,96
2018-07-12T20:46:39.733Z,96.8
2018-07-12T20:49:35.426Z,96.7
2018-07-12T20:52:31.103Z,96.9
2018-07-12T20:55:26.813Z,96.6
2018-07-12T20:58:22.500Z,96.9
2018-07-12T21:01:18.210Z,97
2018-07-12T21:04:13.908Z,97.1
2018-07-12T21:07:09.628Z,97
2018-07-12T21:10:05.284Z,97
2018-07-12T21:13:00.960Z,97.5
2018-07-12T21:18:52.293Z,97.8
2018-07-12T21:24:46.622Z,98.2
2018-07-12T21:27:46.865Z,98
2018-07-12T21:30:39.487Z,98.2
2018-07-12T21:33:37.870Z,98.3
2018-07-12T21:36:30.381Z,98.5
2018-07-12T21:39:24.994Z,98.2
2018-07-12T21:42:18.343Z,98.6
2018-07-12T21:45:14.465Z,98.2
2018-07-12T21:48:09.316Z,98.5
2018-07-12T21:51:05.012Z,98.6
2018-07-12T21:54:03.643Z,98.6
2018-07-12T21:56:59.724Z,98.5
2018-07-12T21:59:57.168Z,98.6
2018-07-12T22:02:48.764Z,98.3
2018-07-12T22:05:43.474Z,98.7
2018-07-12T22:08:42.590Z,99
2018-07-12T22:11:38.911Z,99.1
2018-07-12T22:14:37.504Z,99.3
2018-07-12T22:20:33.950Z,99.4
2018-07-12T22:23:22.645Z,99.5
2018-07-12T22:26:13.025Z,99.2
2018-07-12T22:29:13.200Z,99.1
2018-07-12T22:32:04.341Z,99
2018-07-12T22:35:03.922Z,98.8
2018-07-12T22:38:00.639Z,98.9
2018-07-12T22:40:55.198Z,99.1
2018-07-12T22:43:47.612Z,99.2
2018-07-12T22:47:03.287Z,99.2
2018-07-12T22:49:42.621Z,99.3
2018-07-12T22:52:37.859Z,99.4
2018-07-12T22:55:29.470Z,99.4
2018-07-12T22:58:53.044Z,99.5
2018-07-12T23:01:20.847Z,99.4
2018-07-12T23:04:20.414Z,99.5
2018-07-12T23:07:24.919Z,99.5
2018-07-12T23:10:07.772Z,99.7
2018-07-12T23:13:03.851Z,99.4
2018-07-12T23:16:00.315Z,99.6
2018-07-12T23:18:55.705Z,99.8
2018-07-12T23:21:54.719Z,99.9
2018-07-12T23:24:49.734Z,99.9
2018-07-12T23:27:49.156Z,99.9
2018-07-12T23:30:38.132Z,99.9
2018-07-12T23:33:42.205Z,99.9
2018-07-12T23:36:32.884Z,99.9
2018-07-12T23:39:28.916Z,99.9
2018-07-12T23:42:24.683Z,99.9
2018-07-12T23:45:22.485Z,99.9
2018-07-12T23:48:16.493Z,99.9
2018-07-12T23:51:16.709Z,99.9
2018-07-12T23:54:12.275Z,99.9
2018-07-12T23:57:07.325Z,99.9
